sensor_id;sensor_type;location;lat;lon;timestamp;pressure;altitude;pressure_sealevel;temperature;humidity
32109;BME280;18624;50.042;8.436;2023-04-16T00:00:37;100549.94;;;9.11;100.00
32109;BME280;18624;50.042;8.436;2023-04-16T00:03:03;100514.72;;;8.90;100.00
32109;BME280;18624;50.042;8.436;2023-04-16T00:05:30;100547.16;;;9.15;100.00
32109;BME280;18624;50.042;8.436;2023-04-16T00:07:57;100543.56;;;9.18;100.00
32109;BME280;18624;50.042;8.436;2023-04-16T00:10:23;100541.22;;;9.20;100.00
32109;BME280;18624;50.042;8.436;2023-04-16T00:12:49;100540.84;;;9.18;100.00
32109;BME280;18624;50.042;8.436;2023-04-16T00:15:16;100540.38;;;9.23;100.00
32109;BME280;18624;50.042;8.436;2023-04-16T00:17:42;100533.78;;;9.21;100.00
32109;BME280;18624;50.042;8.436;2023-04-16T00:20:09;100542.31;;;9.23;100.00
32109;BME280;18624;50.042;8.436;2023-04-16T00:22:36;100538.47;;;9.20;100.00
32109;BME280;18624;50.042;8.436;2023-04-16T00:25:03;100530.69;;;9.19;100.00
32109;BME280;18624;50.042;8.436;2023-04-16T00:27:29;100540.78;;;9.22;100.00
32109;BME280;18624;50.042;8.436;2023-04-16T00:29:56;100544.72;;;9.21;100.00
32109;BME280;18624;50.042;8.436;2023-04-16T00:32:23;100543.56;;;9.18;100.00
32109;BME280;18624;50.042;8.436;2023-04-16T00:34:49;100545.19;;;9.16;100.00
32109;BME280;18624;50.042;8.436;2023-04-16T00:37:17;100536.56;;;9.17;100.00
32109;BME280;18624;50.042;8.436;2023-04-16T00:39:43;100538.09;;;9.18;100.00
32109;BME280;18624;50.042;8.436;2023-04-16T00:42:10;100462.41;;;8.65;100.00
32109;BME280;18624;50.042;8.436;2023-04-16T00:44:36;100537.75;;;9.16;100.00
32109;BME280;18624;50.042;8.436;2023-04-16T00:47:03;100531.56;;;9.12;100.00
32109;BME280;18624;50.042;8.436;2023-04-16T00:49:30;100532.75;;;9.11;100.00
32109;BME280;18624;50.042;8.436;2023-04-16T00:51:58;100539.03;;;9.08;100.00
32109;BME280;18624;50.042;8.436;2023-04-16T00:54:25;100538.28;;;9.07;100.00
32109;BME280;18624;50.042;8.436;2023-04-16T00:56:51;100544.94;;;9.06;100.00
32109;BME280;18624;50.042;8.436;2023-04-16T00:59:18;100546.91;;;9.06;100.00
32109;BME280;18624;50.042;8.436;2023-04-16T01:01:45;100544.56;;;9.04;100.00
32109;BME280;18624;50.042;8.436;2023-04-16T01:04:12;100493.16;;;8.69;100.00
32109;BME280;18624;50.042;8.436;2023-04-16T01:06:41;100553.91;;;9.07;100.00
32109;BME280;18624;50.042;8.436;2023-04-16T01:09:09;100549.63;;;9.06;100.00
32109;BME280;18624;50.042;8.436;2023-04-16T01:11:37;100549.97;;;9.08;100.00
32109;BME280;18624;50.042;8.436;2023-04-16T01:14:03;100545.72;;;9.07;100.00
32109;BME280;18624;50.042;8.436;2023-04-16T01:16:31;100544.94;;;9.06;100.00
32109;BME280;18624;50.042;8.436;2023-04-16T01:18:57;100544.88;;;9.10;100.00
32109;BME280;18624;50.042;8.436;2023-04-16T01:21:24;100551.53;;;9.09;100.00
32109;BME280;18624;50.042;8.436;2023-04-16T01:23:51;100560.06;;;9.15;100.00
32109;BME280;18624;50.042;8.436;2023-04-16T01:26:17;100548.75;;;9.12;100.00
32109;BME280;18624;50.042;8.436;2023-04-16T01:28:43;100553.81;;;9.14;100.00
32109;BME280;18624;50.042;8.436;2023-04-16T01:31:10;100550.28;;;9.13;100.00
32109;BME280;18624;50.042;8.436;2023-04-16T01:33:49;100558.44;;;9.17;100.00
32109;BME280;18624;50.042;8.436;2023-04-16T01:36:16;100564.34;;;9.16;100.00
32109;BME280;18624;50.042;8.436;2023-04-16T01:38:43;100563.13;;;9.17;100.00
32109;BME280;18624;50.042;8.436;2023-04-16T01:41:10;100564.34;;;9.16;100.00
32109;BME280;18624;50.042;8.436;2023-04-16T01:43:36;100563.91;;;9.17;100.00
32109;BME280;18624;50.042;8.436;2023-04-16T01:46:19;100568.31;;;9.11;100.00
32109;BME280;18624;50.042;8.436;2023-04-16T01:48:48;100564.41;;;9.08;100.00
32109;BME280;18624;50.042;8.436;2023-04-16T01:51:17;100571.84;;;9.08;100.00
32109;BME280;18624;50.042;8.436;2023-04-16T01:53:43;100584.75;;;9.07;100.00
32109;BME280;18624;50.042;8.436;2023-04-16T01:56:10;100584.75;;;9.07;100.00
32109;BME280;18624;50.042;8.436;2023-04-16T01:58:36;100592.97;;;9.07;100.00
32109;BME280;18624;50.042;8.436;2023-04-16T02:01:03;100594.94;;;9.07;100.00
32109;BME280;18624;50.042;8.436;2023-04-16T02:03:31;100601.97;;;9.04;100.00
32109;BME280;18624;50.042;8.436;2023-04-16T02:05:58;100591.47;;;9.03;100.00
32109;BME280;18624;50.042;8.436;2023-04-16T02:08:27;100489.72;;;8.34;100.00
32109;BME280;18624;50.042;8.436;2023-04-16T02:10:55;100603.91;;;9.07;100.00
32109;BME280;18624;50.042;8.436;2023-04-16T02:13:22;100598.00;;;9.09;100.00
32109;BME280;18624;50.042;8.436;2023-04-16T02:15:51;100590.22;;;9.07;100.00
32109;BME280;18624;50.042;8.436;2023-04-16T02:18:37;100596.03;;;9.09;100.00
32109;BME280;18624;50.042;8.436;2023-04-16T02:21:04;100594.47;;;9.12;100.00
32109;BME280;18624;50.042;8.436;2023-04-16T02:23:31;100590.19;;;9.11;100.00
32109;BME280;18624;50.042;8.436;2023-04-16T02:25:58;100586.63;;;9.14;100.00
32109;BME280;18624;50.042;8.436;2023-04-16T02:28:26;100596.00;;;9.13;100.00
32109;BME280;18624;50.042;8.436;2023-04-16T02:30:53;100591.28;;;9.13;100.00
32109;BME280;18624;50.042;8.436;2023-04-16T02:33:19;100601.00;;;9.18;100.00
32109;BME280;18624;50.042;8.436;2023-04-16T02:35:54;100600.19;;;9.21;100.00
32109;BME280;18624;50.042;8.436;2023-04-16T02:38:21;100604.06;;;9.24;100.00
32109;BME280;18624;50.042;8.436;2023-04-16T02:40:47;100605.94;;;9.27;100.00
32109;BME280;18624;50.042;8.436;2023-04-16T02:43:15;100608.69;;;9.27;100.00
32109;BME280;18624;50.042;8.436;2023-04-16T02:45:41;100597.81;;;9.23;100.00
32109;BME280;18624;50.042;8.436;2023-04-16T02:48:08;100602.06;;;9.28;100.00
32109;BME280;18624;50.042;8.436;2023-04-16T02:50:35;100597.88;;;9.20;100.00
32109;BME280;18624;50.042;8.436;2023-04-16T02:53:01;100599.84;;;9.19;100.00
32109;BME280;18624;50.042;8.436;2023-04-16T02:55:29;100607.31;;;9.15;100.00
32109;BME280;18624;50.042;8.436;2023-04-16T02:57:55;100593.31;;;9.09;100.00
32109;BME280;18624;50.042;8.436;2023-04-16T03:00:22;100603.09;;;9.10;100.00
32109;BME280;18624;50.042;8.436;2023-04-16T03:02:48;100604.63;;;9.11;100.00
32109;BME280;18624;50.042;8.436;2023-04-16T03:05:15;100603.59;;;9.02;100.00
32109;BME280;18624;50.042;8.436;2023-04-16T03:07:41;100609.00;;;9.05;100.00
32109;BME280;18624;50.042;8.436;2023-04-16T03:10:08;100602.81;;;9.01;100.00
32109;BME280;18624;50.042;8.436;2023-04-16T03:12:35;100607.09;;;9.02;100.00
32109;BME280;18624;50.042;8.436;2023-04-16T03:15:05;100607.44;;;9.04;100.00
32109;BME280;18624;50.042;8.436;2023-04-16T03:17:32;100609.84;;;9.02;100.00
32109;BME280;18624;50.042;8.436;2023-04-16T03:19:58;100608.28;;;9.01;100.00
32109;BME280;18624;50.042;8.436;2023-04-16T03:22:25;100611.75;;;9.05;100.00
32109;BME280;18624;50.042;8.436;2023-04-16T03:24:52;100603.91;;;9.07;100.00
32109;BME280;18624;50.042;8.436;2023-04-16T03:27:18;100610.91;;;9.08;100.00
32109;BME280;18624;50.042;8.436;2023-04-16T03:29:45;100605.47;;;9.05;100.00
32109;BME280;18624;50.042;8.436;2023-04-16T03:32:12;100612.81;;;9.11;100.00
32109;BME280;18624;50.042;8.436;2023-04-16T03:34:38;100594.53;;;9.05;100.00
32109;BME280;18624;50.042;8.436;2023-04-16T03:37:05;100608.91;;;9.12;100.00
32109;BME280;18624;50.042;8.436;2023-04-16T03:39:32;100619.03;;;9.16;100.00
32109;BME280;18624;50.042;8.436;2023-04-16T03:41:59;100537.34;;;8.63;100.00
32109;BME280;18624;50.042;8.436;2023-04-16T03:44:27;100623.00;;;9.11;100.00
32109;BME280;18624;50.042;8.436;2023-04-16T03:46:53;100511.13;;;8.39;100.00
32109;BME280;18624;50.042;8.436;2023-04-16T03:49:20;100625.69;;;9.15;100.00
32109;BME280;18624;50.042;8.436;2023-04-16T03:51:47;100631.94;;;9.15;100.00
32109;BME280;18624;50.042;8.436;2023-04-16T03:54:14;100621.75;;;9.16;100.00
32109;BME280;18624;50.042;8.436;2023-04-16T03:56:44;100631.53;;;9.13;100.00
32109;BME280;18624;50.042;8.436;2023-04-16T03:59:11;100631.97;;;9.11;100.00
32109;BME280;18624;50.042;8.436;2023-04-16T04:01:37;100633.56;;;9.09;100.00
32109;BME280;18624;50.042;8.436;2023-04-16T04:04:05;100634.31;;;9.09;100.00
32109;BME280;18624;50.042;8.436;2023-04-16T04:06:32;100634.72;;;9.11;100.00
32109;BME280;18624;50.042;8.436;2023-04-16T04:08:58;100636.66;;;9.11;100.00
32109;BME280;18624;50.042;8.436;2023-04-16T04:11:25;100627.34;;;9.05;100.00
32109;BME280;18624;50.042;8.436;2023-04-16T04:13:52;100636.25;;;9.12;100.00
32109;BME280;18624;50.042;8.436;2023-04-16T04:16:19;100638.97;;;9.12;100.00
32109;BME280;18624;50.042;8.436;2023-04-16T04:18:45;100634.41;;;9.06;100.00
32109;BME280;18624;50.042;8.436;2023-04-16T04:21:12;100644.09;;;9.10;100.00
32109;BME280;18624;50.042;8.436;2023-04-16T04:23:38;100634.66;;;9.15;100.00
32109;BME280;18624;50.042;8.436;2023-04-16T04:26:07;100637.78;;;9.13;100.00
32109;BME280;18624;50.042;8.436;2023-04-16T04:28:34;100642.47;;;9.13;100.00
32109;BME280;18624;50.042;8.436;2023-04-16T04:31:01;100637.88;;;9.10;100.00
32109;BME280;18624;50.042;8.436;2023-04-16T04:33:29;100639.75;;;9.13;100.00
32109;BME280;18624;50.042;8.436;2023-04-16T04:35:55;100640.59;;;9.10;100.00
32109;BME280;18624;50.042;8.436;2023-04-16T04:38:22;100649.19;;;9.08;100.00
32109;BME280;18624;50.042;8.436;2023-04-16T04:40:51;100644.91;;;9.07;100.00
32109;BME280;18624;50.042;8.436;2023-04-16T04:43:19;100640.63;;;9.06;100.00
32109;BME280;18624;50.042;8.436;2023-04-16T04:45:46;100592.16;;;8.80;100.00
32109;BME280;18624;50.042;8.436;2023-04-16T04:48:14;100644.88;;;9.11;100.00
32109;BME280;18624;50.042;8.436;2023-04-16T04:50:41;100595.00;;;8.73;100.00
32109;BME280;18624;50.042;8.436;2023-04-16T04:53:08;100647.56;;;9.15;100.00
32109;BME280;18624;50.042;8.436;2023-04-16T04:55:38;100649.09;;;9.16;100.00
32109;BME280;18624;50.042;8.436;2023-04-16T04:58:05;100658.09;;;9.16;100.00
32109;BME280;18624;50.042;8.436;2023-04-16T05:00:34;100638.28;;;9.05;100.00
32109;BME280;18624;50.042;8.436;2023-04-16T05:03:04;100654.66;;;9.08;100.00
32109;BME280;18624;50.042;8.436;2023-04-16T05:05:31;100657.41;;;9.08;100.00
32109;BME280;18624;50.042;8.436;2023-04-16T05:07:57;100659.41;;;9.04;100.00
32109;BME280;18624;50.042;8.436;2023-04-16T05:10:24;100653.63;;;8.99;100.00
32109;BME280;18624;50.042;8.436;2023-04-16T05:12:50;100665.28;;;9.03;100.00
32109;BME280;18624;50.042;8.436;2023-04-16T05:15:17;100663.69;;;9.05;100.00
32109;BME280;18624;50.042;8.436;2023-04-16T05:17:43;100669.56;;;9.04;100.00
32109;BME280;18624;50.042;8.436;2023-04-16T05:20:10;100679.69;;;9.07;100.00
32109;BME280;18624;50.042;8.436;2023-04-16T05:22:36;100676.56;;;9.05;100.00
32109;BME280;18624;50.042;8.436;2023-04-16T05:25:03;100684.00;;;9.04;100.00
32109;BME280;18624;50.042;8.436;2023-04-16T05:27:29;100684.84;;;9.01;100.00
32109;BME280;18624;50.042;8.436;2023-04-16T05:29:56;100652.34;;;8.76;100.00
32109;BME280;18624;50.042;8.436;2023-04-16T05:32:24;100689.53;;;9.01;100.00
32109;BME280;18624;50.042;8.436;2023-04-16T05:34:51;100695.38;;;9.03;100.00
32109;BME280;18624;50.042;8.436;2023-04-16T05:37:17;100697.31;;;9.02;100.00
32109;BME280;18624;50.042;8.436;2023-04-16T05:39:44;100695.78;;;9.01;100.00
32109;BME280;18624;50.042;8.436;2023-04-16T05:42:10;100687.50;;;9.05;100.00
32109;BME280;18624;50.042;8.436;2023-04-16T05:44:37;100692.59;;;9.06;100.00
32109;BME280;18624;50.042;8.436;2023-04-16T05:47:03;100701.56;;;9.07;100.00
32109;BME280;18624;50.042;8.436;2023-04-16T05:49:30;100692.56;;;9.10;100.00
32109;BME280;18624;50.042;8.436;2023-04-16T05:51:56;100692.16;;;9.08;100.00
32109;BME280;18624;50.042;8.436;2023-04-16T05:54:22;100697.22;;;9.09;100.00
32109;BME280;18624;50.042;8.436;2023-04-16T05:56:49;100695.69;;;9.08;100.00
32109;BME280;18624;50.042;8.436;2023-04-16T05:59:16;100699.59;;;9.07;100.00
32109;BME280;18624;50.042;8.436;2023-04-16T06:01:42;100701.97;;;9.05;100.00
32109;BME280;18624;50.042;8.436;2023-04-16T06:04:08;100627.59;;;8.56;100.00
32109;BME280;18624;50.042;8.436;2023-04-16T06:06:35;100696.09;;;9.07;100.00
32109;BME280;18624;50.042;8.436;2023-04-16T06:09:02;100699.13;;;9.12;100.00
32109;BME280;18624;50.042;8.436;2023-04-16T06:11:29;100705.00;;;9.15;100.00
32109;BME280;18624;50.042;8.436;2023-04-16T06:13:55;100704.22;;;9.14;100.00
32109;BME280;18624;50.042;8.436;2023-04-16T06:16:22;100701.84;;;9.16;100.00
32109;BME280;18624;50.042;8.436;2023-04-16T06:18:48;100698.75;;;9.14;100.00
32109;BME280;18624;50.042;8.436;2023-04-16T06:21:15;100704.56;;;9.16;100.00
32109;BME280;18624;50.042;8.436;2023-04-16T06:23:41;100702.59;;;9.17;100.00
32109;BME280;18624;50.042;8.436;2023-04-16T06:26:08;100672.47;;;8.90;100.00
32109;BME280;18624;50.042;8.436;2023-04-16T06:28:34;100702.53;;;9.24;100.00
32109;BME280;18624;50.042;8.436;2023-04-16T06:31:01;100624.69;;;8.71;100.00
32109;BME280;18624;50.042;8.436;2023-04-16T06:33:27;100701.78;;;9.20;100.00
32109;BME280;18624;50.042;8.436;2023-04-16T06:35:53;100705.34;;;9.17;100.00
32109;BME280;18624;50.042;8.436;2023-04-16T06:38:20;100699.91;;;9.13;100.00
32109;BME280;18624;50.042;8.436;2023-04-16T06:40:47;100693.78;;;9.05;100.00
32109;BME280;18624;50.042;8.436;2023-04-16T06:43:13;100699.56;;;9.11;100.00
32109;BME280;18624;50.042;8.436;2023-04-16T06:45:41;100706.63;;;9.08;100.00
32109;BME280;18624;50.042;8.436;2023-04-16T06:48:07;100706.25;;;9.06;100.00
32109;BME280;18624;50.042;8.436;2023-04-16T06:50:33;100696.19;;;9.00;100.00
32109;BME280;18624;50.042;8.436;2023-04-16T06:53:00;100701.25;;;9.01;100.00
32109;BME280;18624;50.042;8.436;2023-04-16T06:55:27;100700.47;;;9.01;100.00
32109;BME280;18624;50.042;8.436;2023-04-16T06:57:53;100706.72;;;9.01;100.00
32109;BME280;18624;50.042;8.436;2023-04-16T07:00:19;100703.97;;;9.01;100.00
32109;BME280;18624;50.042;8.436;2023-04-16T07:02:46;100702.06;;;8.98;100.00
32109;BME280;18624;50.042;8.436;2023-04-16T07:05:13;100705.22;;;8.97;100.00
32109;BME280;18624;50.042;8.436;2023-04-16T07:07:39;100713.81;;;8.95;100.00
32109;BME280;18624;50.042;8.436;2023-04-16T07:10:06;100702.94;;;8.92;100.00
32109;BME280;18624;50.042;8.436;2023-04-16T07:12:33;100710.72;;;8.93;100.00
32109;BME280;18624;50.042;8.436;2023-04-16T07:14:59;100712.72;;;8.89;100.00
32109;BME280;18624;50.042;8.436;2023-04-16T07:17:26;100716.63;;;8.88;100.00
32109;BME280;18624;50.042;8.436;2023-04-16T07:19:52;100716.25;;;8.86;100.00
32109;BME280;18624;50.042;8.436;2023-04-16T07:22:20;100719.00;;;8.86;100.00
32109;BME280;18624;50.042;8.436;2023-04-16T07:24:46;100718.63;;;8.84;100.00
32109;BME280;18624;50.042;8.436;2023-04-16T07:27:13;100711.66;;;8.79;100.00
32109;BME280;18624;50.042;8.436;2023-04-16T07:29:39;100714.78;;;8.78;100.00
32109;BME280;18624;50.042;8.436;2023-04-16T07:32:06;100719.47;;;8.77;100.00
32109;BME280;18624;50.042;8.436;2023-04-16T07:34:33;100713.25;;;8.77;100.00
32109;BME280;18624;50.042;8.436;2023-04-16T07:36:59;100724.16;;;8.77;100.00
32109;BME280;18624;50.042;8.436;2023-04-16T07:39:26;100726.50;;;8.78;100.00
32109;BME280;18624;50.042;8.436;2023-04-16T07:41:52;100585.06;;;7.83;100.00
32109;BME280;18624;50.042;8.436;2023-04-16T07:44:19;100730.38;;;8.81;100.00
32109;BME280;18624;50.042;8.436;2023-04-16T07:46:45;100733.88;;;8.81;100.00
32109;BME280;18624;50.042;8.436;2023-04-16T07:49:13;100736.59;;;8.85;100.00
32109;BME280;18624;50.042;8.436;2023-04-16T07:51:40;100731.53;;;8.83;100.00
32109;BME280;18624;50.042;8.436;2023-04-16T07:54:06;100739.34;;;8.81;100.00
32109;BME280;18624;50.042;8.436;2023-04-16T07:56:33;100672.69;;;8.34;100.00
32109;BME280;18624;50.042;8.436;2023-04-16T07:58:59;100746.81;;;8.77;100.00
32109;BME280;18624;50.042;8.436;2023-04-16T08:01:46;100758.03;;;8.86;100.00
32109;BME280;18624;50.042;8.436;2023-04-16T08:04:12;100766.66;;;8.85;100.00
32109;BME280;18624;50.042;8.436;2023-04-16T08:06:39;100774.00;;;8.92;100.00
32109;BME280;18624;50.042;8.436;2023-04-16T08:09:06;100776.31;;;8.93;100.00
32109;BME280;18624;50.042;8.436;2023-04-16T08:11:32;100783.31;;;8.98;100.00
32109;BME280;18624;50.042;8.436;2023-04-16T08:13:59;100777.44;;;8.99;100.00
32109;BME280;18624;50.042;8.436;2023-04-16T08:16:25;100653.75;;;8.16;100.00
32109;BME280;18624;50.042;8.436;2023-04-16T08:18:52;100786.38;;;9.03;100.00
32109;BME280;18624;50.042;8.436;2023-04-16T08:21:18;100782.44;;;9.04;100.00
32109;BME280;18624;50.042;8.436;2023-04-16T08:23:45;100789.84;;;9.07;100.00
32109;BME280;18624;50.042;8.436;2023-04-16T08:26:12;100789.38;;;9.12;100.00
32109;BME280;18624;50.042;8.436;2023-04-16T08:28:39;100792.06;;;9.20;100.00
32109;BME280;18624;50.042;8.436;2023-04-16T08:31:05;100790.84;;;9.21;100.00
32109;BME280;18624;50.042;8.436;2023-04-16T08:33:31;100796.69;;;9.23;100.00
32109;BME280;18624;50.042;8.436;2023-04-16T08:35:58;100707.47;;;8.68;100.00
32109;BME280;18624;50.042;8.436;2023-04-16T08:38:24;100802.50;;;9.28;100.00
32109;BME280;18624;50.042;8.436;2023-04-16T08:40:52;100608.25;;;8.02;100.00
32109;BME280;18624;50.042;8.436;2023-04-16T08:43:22;100799.34;;;9.30;100.00
32109;BME280;18624;50.042;8.436;2023-04-16T08:45:49;100805.13;;;9.35;100.00
32109;BME280;18624;50.042;8.436;2023-04-16T08:48:17;100812.56;;;9.35;100.00
32109;BME280;18624;50.042;8.436;2023-04-16T08:50:48;100812.16;;;9.36;100.00
32109;BME280;18624;50.042;8.436;2023-04-16T08:53:21;100809.38;;;9.40;100.00
32109;BME280;18624;50.042;8.436;2023-04-16T08:55:55;100814.03;;;9.43;100.00
32109;BME280;18624;50.042;8.436;2023-04-16T08:58:28;100821.78;;;9.48;100.00
32109;BME280;18624;50.042;8.436;2023-04-16T09:00:57;100820.22;;;9.51;100.00
32109;BME280;18624;50.042;8.436;2023-04-16T09:03:24;100815.09;;;9.53;100.00
32109;BME280;18624;50.042;8.436;2023-04-16T09:05:52;100815.41;;;9.58;100.00
32109;BME280;18624;50.042;8.436;2023-04-16T09:08:18;100813.81;;;9.61;100.00
32109;BME280;18624;50.042;8.436;2023-04-16T09:10:45;100806.03;;;9.59;100.00
32109;BME280;18624;50.042;8.436;2023-04-16T09:13:12;100819.22;;;9.68;100.00
32109;BME280;18624;50.042;8.436;2023-04-16T09:15:41;100815.63;;;9.71;100.00
32109;BME280;18624;50.042;8.436;2023-04-16T09:18:09;100821.06;;;9.75;100.00
32109;BME280;18624;50.042;8.436;2023-04-16T09:20:38;100814.78;;;9.78;100.00
32109;BME280;18624;50.042;8.436;2023-04-16T09:23:04;100669.06;;;8.82;100.00
32109;BME280;18624;50.042;8.436;2023-04-16T09:25:34;100815.91;;;9.80;100.00
32109;BME280;18624;50.042;8.436;2023-04-16T09:28:00;100819.78;;;9.83;100.00
32109;BME280;18624;50.042;8.436;2023-04-16T09:30:27;100818.53;;;9.87;100.00
32109;BME280;18624;50.042;8.436;2023-04-16T09:33:17;100819.66;;;9.90;100.00
32109;BME280;18624;50.042;8.436;2023-04-16T09:35:49;100827.03;;;9.97;100.00
32109;BME280;18624;50.042;8.436;2023-04-16T09:38:16;100818.50;;;9.91;100.00
32109;BME280;18624;50.042;8.436;2023-04-16T09:40:42;100827.75;;;10.01;100.00
32109;BME280;18624;50.042;8.436;2023-04-16T09:43:11;100828.13;;;9.99;100.00
32109;BME280;18624;50.042;8.436;2023-04-16T09:45:51;100843.41;;;10.00;100.00
32109;BME280;18624;50.042;8.436;2023-04-16T09:48:28;100842.22;;;10.01;100.00
32109;BME280;18624;50.042;8.436;2023-04-16T09:50:55;100835.50;;;10.06;100.00
32109;BME280;18624;50.042;8.436;2023-04-16T09:53:29;100837.75;;;10.11;100.00
32109;BME280;18624;50.042;8.436;2023-04-16T09:55:56;100834.41;;;10.00;100.00
32109;BME280;18624;50.042;8.436;2023-04-16T09:58:23;100827.22;;;10.09;100.00
32109;BME280;18624;50.042;8.436;2023-04-16T10:01:00;100848.19;;;10.20;100.00
32109;BME280;18624;50.042;8.436;2023-04-16T10:03:31;100849.34;;;10.22;100.00
32109;BME280;18624;50.042;8.436;2023-04-16T10:06:18;100850.91;;;10.23;100.00
32109;BME280;18624;50.042;8.436;2023-04-16T10:08:54;100853.19;;;10.28;100.00
32109;BME280;18624;50.042;8.436;2023-04-16T10:11:23;100858.25;;;10.30;100.00
32109;BME280;18624;50.042;8.436;2023-04-16T10:13:50;100852.72;;;10.33;100.00
32109;BME280;18624;50.042;8.436;2023-04-16T10:16:17;100829.53;;;10.11;100.00
32109;BME280;18624;50.042;8.436;2023-04-16T10:18:45;100859.59;;;10.45;100.00
32109;BME280;18624;50.042;8.436;2023-04-16T10:21:12;100854.13;;;10.45;100.00
32109;BME280;18624;50.042;8.436;2023-04-16T10:23:39;100856.78;;;10.49;100.00
32109;BME280;18624;50.042;8.436;2023-04-16T10:26:06;100826.63;;;10.25;100.00
32109;BME280;18624;50.042;8.436;2023-04-16T10:28:32;100859.41;;;10.56;100.00
32109;BME280;18624;50.042;8.436;2023-04-16T10:31:02;100855.47;;;10.57;100.00
32109;BME280;18624;50.042;8.436;2023-04-16T10:33:31;100867.59;;;10.59;100.00
32109;BME280;18624;50.042;8.436;2023-04-16T10:36:15;100867.53;;;10.63;100.00
32109;BME280;18624;50.042;8.436;2023-04-16T10:38:46;100869.03;;;10.68;100.00
32109;BME280;18624;50.042;8.436;2023-04-16T10:41:14;100865.09;;;10.69;100.00
32109;BME280;18624;50.042;8.436;2023-04-16T10:43:46;100874.13;;;10.65;100.00
32109;BME280;18624;50.042;8.436;2023-04-16T10:46:19;100872.22;;;10.62;100.00
32109;BME280;18624;50.042;8.436;2023-04-16T10:48:48;100876.09;;;10.65;100.00
32109;BME280;18624;50.042;8.436;2023-04-16T10:51:30;100861.81;;;10.54;100.00
32109;BME280;18624;50.042;8.436;2023-04-16T10:54:02;100868.84;;;10.55;100.00
32109;BME280;18624;50.042;8.436;2023-04-16T10:56:33;100788.31;;;9.95;100.00
32109;BME280;18624;50.042;8.436;2023-04-16T10:59:02;100866.56;;;10.50;100.00
32109;BME280;18624;50.042;8.436;2023-04-16T11:01:34;100820.56;;;10.10;100.00
32109;BME280;18624;50.042;8.436;2023-04-16T11:04:25;100870.91;;;10.47;100.00
32109;BME280;18624;50.042;8.436;2023-04-16T11:09:58;100879.94;;;10.44;100.00
32109;BME280;18624;50.042;8.436;2023-04-16T11:12:43;100875.25;;;10.45;100.00
32109;BME280;18624;50.042;8.436;2023-04-16T11:15:13;100876.91;;;10.38;100.00
32109;BME280;18624;50.042;8.436;2023-04-16T11:17:42;100881.53;;;10.45;100.00
32109;BME280;18624;50.042;8.436;2023-04-16T11:20:29;100885.81;;;10.46;100.00
32109;BME280;18624;50.042;8.436;2023-04-16T11:22:56;100875.25;;;10.45;100.00
32109;BME280;18624;50.042;8.436;2023-04-16T11:25:29;100881.16;;;10.43;100.00
32109;BME280;18624;50.042;8.436;2023-04-16T11:27:57;100884.59;;;10.47;100.00
32109;BME280;18624;50.042;8.436;2023-04-16T11:30:28;100748.19;;;9.57;100.00
32109;BME280;18624;50.042;8.436;2023-04-16T11:32:55;100882.59;;;10.51;100.00
32109;BME280;18624;50.042;8.436;2023-04-16T11:35:21;100879.84;;;10.51;100.00
32109;BME280;18624;50.042;8.436;2023-04-16T11:37:48;100813.31;;;9.97;100.00
32109;BME280;18624;50.042;8.436;2023-04-16T11:40:14;100894.28;;;10.55;100.00
32109;BME280;18624;50.042;8.436;2023-04-16T11:42:41;100897.75;;;10.59;100.00
32109;BME280;18624;50.042;8.436;2023-04-16T11:45:09;100884.38;;;10.61;100.00
32109;BME280;18624;50.042;8.436;2023-04-16T11:47:47;100891.41;;;10.62;100.00
32109;BME280;18624;50.042;8.436;2023-04-16T11:50:25;100889.47;;;10.63;100.00
32109;BME280;18624;50.042;8.436;2023-04-16T11:52:54;100896.44;;;10.68;100.00
32109;BME280;18624;50.042;8.436;2023-04-16T11:55:22;100876.63;;;10.56;100.00
32109;BME280;18624;50.042;8.436;2023-04-16T11:57:49;100889.75;;;10.69;100.00
32109;BME280;18624;50.042;8.436;2023-04-16T12:00:17;100897.94;;;10.72;100.00
32109;BME280;18624;50.042;8.436;2023-04-16T12:02:51;100893.63;;;10.71;100.00
32109;BME280;18624;50.042;8.436;2023-04-16T12:05:34;100895.59;;;10.71;100.00
32109;BME280;18624;50.042;8.436;2023-04-16T12:08:06;100884.22;;;10.72;100.00
32109;BME280;18624;50.042;8.436;2023-04-16T12:10:35;100889.63;;;10.76;100.00
32109;BME280;18624;50.042;8.436;2023-04-16T12:13:15;100888.03;;;10.78;100.00
32109;BME280;18624;50.042;8.436;2023-04-16T12:15:55;100893.09;;;10.80;100.00
32109;BME280;18624;50.042;8.436;2023-04-16T12:18:24;100893.47;;;10.82;100.00
32109;BME280;18624;50.042;8.436;2023-04-16T12:20:53;100880.72;;;10.72;100.00
32109;BME280;18624;50.042;8.436;2023-04-16T12:23:32;100896.19;;;10.82;100.00
32109;BME280;18624;50.042;8.436;2023-04-16T12:26:06;100896.97;;;10.82;100.00
32109;BME280;18624;50.042;8.436;2023-04-16T12:28:36;100810.94;;;10.26;100.00
32109;BME280;18624;50.042;8.436;2023-04-16T12:31:06;100896.19;;;10.82;100.00
32109;BME280;18624;50.042;8.436;2023-04-16T12:33:33;100894.66;;;10.81;100.00
32109;BME280;18624;50.042;8.436;2023-04-16T12:36:00;100822.56;;;10.33;100.00
32109;BME280;18624;50.042;8.436;2023-04-16T12:38:28;100900.53;;;10.79;100.00
32109;BME280;18624;50.042;8.436;2023-04-16T12:40:54;100899.00;;;10.78;100.00
32109;BME280;18624;50.042;8.436;2023-04-16T12:43:22;100895.59;;;10.71;100.00
32109;BME280;18624;50.042;8.436;2023-04-16T12:45:49;100901.31;;;10.80;100.00
32109;BME280;18624;50.042;8.436;2023-04-16T12:48:15;100903.28;;;10.79;100.00
32109;BME280;18624;50.042;8.436;2023-04-16T12:50:42;100901.38;;;10.76;100.00
32109;BME280;18624;50.042;8.436;2023-04-16T12:53:09;100902.94;;;10.77;100.00
32109;BME280;18624;50.042;8.436;2023-04-16T12:55:36;100905.69;;;10.77;100.00